createdAt,value
2019-05-11T00:00:10.510Z,100752.31
2019-05-11T00:02:37.620Z,100745.02
2019-05-11T00:05:04.560Z,100741.23
2019-05-11T00:07:31.455Z,100736.08
2019-05-11T00:09:58.768Z,100745.42
2019-05-11T00:12:26.126Z,100745.13
2019-05-11T00:14:52.997Z,100745.16
2019-05-11T00:17:20.310Z,100746.98
2019-05-11T00:19:47.147Z,100755.59
2019-05-11T00:22:14.318Z,100745.56
2019-05-11T00:24:41.456Z,100738.16
2019-05-11T00:27:08.368Z,100736.41
2019-05-11T00:29:35.257Z,100737.83
2019-05-11T00:32:02.129Z,100743.06
2019-05-11T00:34:29.122Z,100746.02
2019-05-11T00:36:55.899Z,100752.00
2019-05-11T00:39:23.422Z,100756.78
2019-05-11T00:41:50.497Z,100745.92
2019-05-11T00:44:17.265Z,100740.59
2019-05-11T00:46:44.480Z,100724.87
2019-05-11T00:49:12.283Z,100729.52
2019-05-11T00:51:39.366Z,100727.42
2019-05-11T00:54:06.209Z,100719.09
2019-05-11T00:56:32.971Z,100722.28
2019-05-11T00:59:00.074Z,100719.81
2019-05-11T01:01:26.867Z,100717.45
2019-05-11T01:03:54.093Z,100715.21
2019-05-11T01:06:20.928Z,100708.89
2019-05-11T01:08:47.986Z,100706.69
2019-05-11T01:11:15.096Z,100704.59
2019-05-11T01:13:41.909Z,100700.65
2019-05-11T01:16:09.001Z,100706.34
2019-05-11T01:18:35.919Z,100709.62
2019-05-11T01:21:02.817Z,100704.23
2019-05-11T01:23:29.669Z,100702.55
2019-05-11T01:25:56.806Z,100702.59
2019-05-11T01:28:23.725Z,100696.30
2019-05-11T01:30:51.004Z,100701.29
2019-05-11T01:33:17.896Z,100707.87
2019-05-11T01:35:45.097Z,100710.66
2019-05-11T01:38:12.111Z,100717.34
2019-05-11T01:40:38.997Z,100718.77
2019-05-11T01:43:05.883Z,100713.58
2019-05-11T01:45:33.173Z,100714.87
2019-05-11T01:48:00.546Z,100722.73
2019-05-11T01:50:27.541Z,100710.50
2019-05-11T01:52:54.361Z,100708.60
2019-05-11T01:55:21.162Z,100701.64
2019-05-11T01:57:48.077Z,100699.02
2019-05-11T02:00:14.994Z,100687.64
2019-05-11T02:02:41.908Z,100685.48
2019-05-11T02:05:26.884Z,100689.83
2019-05-11T02:07:54.005Z,100682.91
2019-05-11T02:10:20.882Z,100684.27
2019-05-11T02:12:48.170Z,100684.34
2019-05-11T02:15:15.177Z,100672.20
2019-05-11T02:17:42.041Z,100679.64
2019-05-11T02:20:09.279Z,100673.66
2019-05-11T02:22:36.211Z,100668.07
2019-05-11T02:25:03.709Z,100661.22
2019-05-11T02:27:30.678Z,100664.69
2019-05-11T02:29:57.466Z,100673.90
2019-05-11T02:32:24.237Z,100663.95
2019-05-11T02:34:51.187Z,100664.89
2019-05-11T02:37:17.963Z,100668.86
2019-05-11T02:39:44.850Z,100673.68
2019-05-11T02:42:11.780Z,100675.51
2019-05-11T02:44:38.578Z,100675.92
2019-05-11T02:47:05.514Z,100682.94
2019-05-11T02:49:32.398Z,100681.64
2019-05-11T02:52:00.229Z,100679.08
2019-05-11T02:54:27.337Z,100677.80
2019-05-11T02:56:54.287Z,100686.09
2019-05-11T02:59:21.137Z,100694.38
2019-05-11T03:01:47.967Z,100701.42
2019-05-11T03:04:14.779Z,100704.86
2019-05-11T03:06:41.664Z,100696.61
2019-05-11T03:09:08.602Z,100701.44
2019-05-11T03:11:53.666Z,100700.10
2019-05-11T03:14:04.267Z,100695.31
2019-05-11T03:16:31.343Z,100707.95
2019-05-11T03:18:58.603Z,100707.45
2019-05-11T03:21:25.444Z,100713.09
2019-05-11T03:23:52.247Z,100708.69
2019-05-11T03:26:19.116Z,100707.77
2019-05-11T03:28:46.117Z,100719.05
2019-05-11T03:31:13.004Z,100718.84
2019-05-11T03:33:39.954Z,100722.09
2019-05-11T03:36:08.025Z,100724.14
2019-05-11T03:38:34.952Z,100726.95
2019-05-11T03:41:01.872Z,100720.77
2019-05-11T03:43:28.741Z,100717.17
2019-05-11T03:45:55.625Z,100721.50
2019-05-11T03:48:22.564Z,100716.66
2019-05-11T03:50:49.482Z,100714.13
2019-05-11T03:53:16.555Z,100710.39
2019-05-11T03:55:43.373Z,100706.75
2019-05-11T03:58:10.241Z,100699.30
2019-05-11T04:00:44.312Z,100699.27
2019-05-11T04:03:11.174Z,100701.27
2019-05-11T04:05:37.960Z,100706.48
2019-05-11T04:08:04.892Z,100710.75
2019-05-11T04:10:31.747Z,100715.00
2019-05-11T04:12:58.844Z,100728.50
2019-05-11T04:15:26.024Z,100731.00
2019-05-11T04:17:52.906Z,100726.03
2019-05-11T04:20:20.127Z,100727.25
2019-05-11T04:22:46.990Z,100730.30
2019-05-11T04:25:14.374Z,100728.08
2019-05-11T04:27:41.144Z,100729.35
2019-05-11T04:30:08.743Z,100721.44
2019-05-11T04:32:35.655Z,100718.24
2019-05-11T04:35:06.699Z,100721.12
2019-05-11T04:37:33.893Z,100723.11
2019-05-11T04:40:00.656Z,100718.13
2019-05-11T04:42:28.047Z,100721.81
2019-05-11T04:44:54.918Z,100721.94
2019-05-11T04:47:21.834Z,100711.25
2019-05-11T04:49:48.776Z,100718.87
2019-05-11T04:52:15.573Z,100720.16
2019-05-11T04:54:42.975Z,100722.80
2019-05-11T04:57:09.908Z,100719.39
2019-05-11T04:59:36.806Z,100720.73
2019-05-11T05:02:03.659Z,100715.25
2019-05-11T05:04:30.496Z,100717.83
2019-05-11T05:06:59.994Z,100720.27
2019-05-11T05:09:26.362Z,100725.17
2019-05-11T05:11:53.327Z,100723.50
2019-05-11T05:14:20.411Z,100723.44
2019-05-11T05:16:47.638Z,100719.14
2019-05-11T05:19:16.010Z,100719.19
2019-05-11T05:21:42.978Z,100713.00
2019-05-11T05:24:09.728Z,100711.55
2019-05-11T05:26:36.992Z,100721.16
2019-05-11T05:29:05.780Z,100714.56
2019-05-11T05:31:33.745Z,100717.97
2019-05-11T05:34:01.614Z,100714.31
2019-05-11T05:36:28.534Z,100713.67
2019-05-11T05:38:55.286Z,100709.79
2019-05-11T05:41:23.947Z,100715.07
2019-05-11T05:43:50.641Z,100710.73
2019-05-11T05:46:17.689Z,100711.49
2019-05-11T05:48:44.441Z,100709.27
2019-05-11T05:51:13.063Z,100707.31
2019-05-11T05:53:41.020Z,100709.20
2019-05-11T05:56:11.871Z,100706.11
2019-05-11T05:58:39.619Z,100713.01
2019-05-11T06:01:09.911Z,100706.75
2019-05-11T06:03:35.624Z,100712.32
2019-05-11T06:06:02.590Z,100717.63
2019-05-11T06:08:29.495Z,100710.58
2019-05-11T06:10:56.559Z,100710.41
2019-05-11T06:13:23.393Z,100718.72
2019-05-11T06:15:50.026Z,100718.66
2019-05-11T06:18:17.105Z,100720.23
2019-05-11T06:20:44.315Z,100716.28
2019-05-11T06:23:11.012Z,100717.41
2019-05-11T06:25:37.920Z,100714.30
2019-05-11T06:28:04.694Z,100706.81
2019-05-11T06:30:31.557Z,100716.05
2019-05-11T06:32:58.396Z,100713.70
2019-05-11T06:35:25.321Z,100717.35
2019-05-11T06:37:52.209Z,100719.31
2019-05-11T06:40:19.235Z,100719.75
2019-05-11T06:42:46.219Z,100723.66
2019-05-11T06:45:13.133Z,100713.64
2019-05-11T06:47:40.318Z,100718.13
2019-05-11T06:50:07.150Z,100709.19
2019-05-11T06:52:34.081Z,100718.64
2019-05-11T06:55:00.871Z,100717.69
2019-05-11T06:57:27.992Z,100719.95
2019-05-11T06:59:55.277Z,100719.01
2019-05-11T07:02:22.080Z,100726.40
2019-05-11T07:04:48.856Z,100714.47
2019-05-11T07:07:15.787Z,100714.87
2019-05-11T07:09:42.538Z,100703.69
2019-05-11T07:12:09.430Z,100709.64
2019-05-11T07:14:36.284Z,100708.75
2019-05-11T07:17:03.025Z,100708.41
2019-05-11T07:19:29.905Z,100708.75
2019-05-11T07:21:56.641Z,100706.94
2019-05-11T07:24:23.328Z,100702.63
2019-05-11T07:26:50.229Z,100701.64
2019-05-11T07:29:17.217Z,100699.72
2019-05-11T07:31:44.066Z,100702.19
2019-05-11T07:34:10.809Z,100700.14
2019-05-11T07:36:38.807Z,100692.95
2019-05-11T07:39:08.134Z,100692.55
2019-05-11T07:41:34.709Z,100702.50
2019-05-11T07:44:04.325Z,100702.98
2019-05-11T07:46:31.549Z,100703.73
2019-05-11T07:48:58.742Z,100703.46
2019-05-11T07:51:26.445Z,100703.95
2019-05-11T07:53:54.683Z,100704.36
2019-05-11T07:56:31.823Z,100702.31
2019-05-11T07:59:29.190Z,100708.52
2019-05-11T08:02:09.931Z,100704.95
2019-05-11T08:04:37.865Z,100698.77
2019-05-11T08:07:07.544Z,100702.59
2019-05-11T08:09:34.065Z,100698.45
2019-05-11T08:12:00.804Z,100702.63
2019-05-11T08:14:28.777Z,100700.75
2019-05-11T08:16:59.195Z,100705.78
2019-05-11T08:19:28.096Z,100701.44
2019-05-11T08:21:54.931Z,100692.53
2019-05-11T08:24:21.815Z,100692.48
2019-05-11T08:26:48.709Z,100690.91
2019-05-11T08:29:18.408Z,100687.81
2019-05-11T08:31:44.909Z,100681.41
2019-05-11T08:34:11.698Z,100682.25
2019-05-11T08:36:38.869Z,100686.55
2019-05-11T08:39:07.701Z,100683.56
2019-05-11T08:41:35.348Z,100678.78
2019-05-11T08:44:02.404Z,100686.99
2019-05-11T08:46:29.295Z,100684.79
2019-05-11T08:48:56.433Z,100688.79
2019-05-11T08:51:23.617Z,100685.42
2019-05-11T08:53:50.370Z,100687.61
2019-05-11T08:56:18.933Z,100684.31
2019-05-11T08:58:45.845Z,100686.45
2019-05-11T09:01:12.697Z,100683.06
2019-05-11T09:03:39.345Z,100678.84
2019-05-11T09:06:08.371Z,100672.16
2019-05-11T09:08:35.017Z,100672.19
2019-05-11T09:11:01.928Z,100676.98
2019-05-11T09:13:28.827Z,100682.88
2019-05-11T09:15:55.720Z,100679.91
2019-05-11T09:18:22.520Z,100681.44
2019-05-11T09:20:49.272Z,100676.17
2019-05-11T09:23:32.477Z,100680.30
2019-05-11T09:25:47.561Z,100682.13
2019-05-11T09:28:14.033Z,100686.99
2019-05-11T09:30:40.802Z,100680.34
2019-05-11T09:33:08.619Z,100682.07
2019-05-11T09:35:49.298Z,100680.19
2019-05-11T09:38:04.520Z,100685.73
2019-05-11T09:40:31.345Z,100687.55
2019-05-11T09:42:58.641Z,100690.53
2019-05-11T09:45:27.665Z,100679.47
2019-05-11T09:47:54.232Z,100682.70
2019-05-11T09:50:20.978Z,100679.97
2019-05-11T09:52:48.990Z,100686.28
2019-05-11T09:55:18.796Z,100677.84
2019-05-11T09:57:45.405Z,100675.54
2019-05-11T10:00:13.174Z,100672.60
2019-05-11T10:02:40.166Z,100676.41
2019-05-11T10:05:08.396Z,100666.36
2019-05-11T10:07:37.810Z,100672.11
2019-05-11T10:10:04.433Z,100672.16
2019-05-11T10:12:31.179Z,100666.92
2019-05-11T10:14:59.129Z,100670.61
2019-05-11T10:17:26.147Z,100673.95
2019-05-11T10:19:53.042Z,100677.49
2019-05-11T10:22:19.844Z,100676.30
2019-05-11T10:24:47.735Z,100675.77
2019-05-11T10:27:14.623Z,100675.52
2019-05-11T10:29:41.353Z,100679.80
2019-05-11T10:32:08.165Z,100679.03
2019-05-11T10:34:35.177Z,100674.53
2019-05-11T10:37:01.968Z,100676.64
2019-05-11T10:39:28.701Z,100674.50
2019-05-11T10:41:58.104Z,100675.83
2019-05-11T10:44:24.443Z,100677.77
2019-05-11T10:46:51.608Z,100675.80
2019-05-11T10:49:18.657Z,100676.80
2019-05-11T10:51:45.558Z,100682.62
2019-05-11T10:54:12.481Z,100676.63
2019-05-11T10:56:40.012Z,100671.89
2019-05-11T10:59:08.001Z,100667.16
2019-05-11T11:01:37.850Z,100660.81
2019-05-11T11:04:04.411Z,100667.67
2019-05-11T11:06:31.412Z,100671.17
2019-05-11T11:08:58.826Z,100669.66
2019-05-11T11:11:27.836Z,100667.05
2019-05-11T11:13:55.341Z,100668.56
2019-05-11T11:16:35.652Z,100659.28
2019-05-11T11:18:51.264Z,100665.06
2019-05-11T11:21:22.654Z,100658.61
2019-05-11T11:23:48.000Z,100656.91
2019-05-11T11:26:21.115Z,100656.75
2019-05-11T11:28:48.327Z,100662.55
2019-05-11T11:31:15.275Z,100656.81
2019-05-11T11:33:42.216Z,100657.69
2019-05-11T11:36:08.971Z,100664.42
2019-05-11T11:38:37.591Z,100668.48
2019-05-11T11:41:04.721Z,100665.95
2019-05-11T11:43:31.672Z,100669.47
2019-05-11T11:45:58.451Z,100670.27
2019-05-11T11:48:25.215Z,100662.83
2019-05-11T11:50:52.017Z,100663.50
2019-05-11T11:53:18.950Z,100658.19
2019-05-11T11:55:48.024Z,100664.88
2019-05-11T11:58:14.552Z,100664.28
2019-05-11T12:00:41.548Z,100665.78
2019-05-11T12:03:09.434Z,100670.58
2019-05-11T12:05:38.614Z,100663.95
2019-05-11T12:08:08.129Z,100663.77
2019-05-11T12:10:34.774Z,100669.02
2019-05-11T12:13:01.757Z,100670.13
2019-05-11T12:15:28.491Z,100676.97
2019-05-11T12:17:55.678Z,100666.28
2019-05-11T12:20:22.692Z,100662.43
2019-05-11T12:22:49.881Z,100670.17
2019-05-11T12:25:18.615Z,100671.37
2019-05-11T12:27:48.729Z,100671.84
2019-05-11T12:30:14.876Z,100665.49
2019-05-11T12:32:48.701Z,100670.87
2019-05-11T12:35:17.803Z,100662.42
2019-05-11T12:37:44.762Z,100666.89
2019-05-11T12:40:12.420Z,100673.75
2019-05-11T12:42:39.274Z,100660.70
2019-05-11T12:45:07.572Z,100663.76
2019-05-11T12:47:34.565Z,100662.38
2019-05-11T12:50:01.669Z,100663.03
2019-05-11T12:52:28.554Z,100663.89
2019-05-11T12:54:55.445Z,100665.95
2019-05-11T12:57:22.364Z,100661.08
2019-05-11T12:59:49.136Z,100667.94
2019-05-11T13:02:18.444Z,100669.34
2019-05-11T13:04:47.577Z,100670.73
2019-05-11T13:07:16.705Z,100667.55
2019-05-11T13:09:43.969Z,100673.61
2019-05-11T13:12:11.199Z,100670.39
2019-05-11T13:14:38.265Z,100677.89
2019-05-11T13:17:05.122Z,100678.86
2019-05-11T13:19:31.953Z,100679.60
2019-05-11T13:22:00.781Z,100679.67
2019-05-11T13:24:28.192Z,100677.38
2019-05-11T13:26:55.483Z,100685.02
2019-05-11T13:29:22.788Z,100681.24
2019-05-11T13:31:49.689Z,100682.73
2019-05-11T13:36:43.620Z,100681.37
2019-05-11T13:39:10.798Z,100688.38
2019-05-11T13:41:38.393Z,100680.77
2019-05-11T13:44:05.393Z,100685.09
2019-05-11T13:46:32.610Z,100688.79
2019-05-11T13:48:59.403Z,100695.46
2019-05-11T13:51:28.383Z,100698.83
2019-05-11T13:53:55.035Z,100700.81
2019-05-11T13:56:21.797Z,100701.77
2019-05-11T13:58:48.980Z,100703.34
2019-05-11T14:01:18.167Z,100707.66
2019-05-11T14:03:45.128Z,100717.20
2019-05-11T14:06:12.937Z,100717.70
2019-05-11T14:08:40.844Z,100716.36
2019-05-11T14:11:17.898Z,100715.45
2019-05-11T14:13:50.978Z,100718.73
2019-05-11T14:16:18.784Z,100720.79
2019-05-11T14:18:49.836Z,100720.88
2019-05-11T14:21:18.680Z,100723.09
2019-05-11T14:23:48.416Z,100717.88
2019-05-11T14:26:19.973Z,100727.78
2019-05-11T14:28:49.383Z,100733.53
2019-05-11T14:31:28.240Z,100743.06
2019-05-11T14:33:59.873Z,100736.72
2019-05-11T14:36:38.850Z,100743.74
2019-05-11T14:39:08.887Z,100752.33
2019-05-11T14:41:38.012Z,100752.84
2019-05-11T14:44:10.577Z,100753.42
2019-05-11T14:46:40.457Z,100752.20
2019-05-11T14:49:08.746Z,100756.10
2019-05-11T14:51:42.860Z,100761.12
2019-05-11T14:54:13.551Z,100761.37
2019-05-11T14:56:44.760Z,100764.88
2019-05-11T14:59:23.821Z,100763.55
2019-05-11T15:01:54.210Z,100769.79
2019-05-11T15:04:28.809Z,100771.36
2019-05-11T15:06:57.944Z,100770.70
2019-05-11T15:09:28.346Z,100774.59
2019-05-11T15:11:57.724Z,100778.58
2019-05-11T15:14:28.896Z,100779.87
2019-05-11T15:16:57.641Z,100779.50
2019-05-11T15:19:25.249Z,100784.66
2019-05-11T15:21:52.840Z,100791.41
2019-05-11T15:24:19.949Z,100799.05
2019-05-11T15:26:48.650Z,100796.03
2019-05-11T15:29:17.963Z,100802.64
2019-05-11T15:31:44.972Z,100804.84
2019-05-11T15:34:12.050Z,100801.39
2019-05-11T15:36:39.848Z,100806.17
2019-05-11T15:39:07.930Z,100797.78
2019-05-11T15:41:35.081Z,100800.70
2019-05-11T15:44:02.179Z,100803.21
2019-05-11T15:46:29.549Z,100801.70
2019-05-11T15:49:03.069Z,100803.89
2019-05-11T15:51:26.048Z,100797.78
2019-05-11T15:53:53.344Z,100809.40
2019-05-11T15:56:20.431Z,100813.64
2019-05-11T15:58:48.776Z,100813.39
2019-05-11T16:01:18.465Z,100817.63
2019-05-11T16:03:44.999Z,100820.31
2019-05-11T16:06:12.348Z,100826.75
2019-05-11T16:08:39.899Z,100821.92
2019-05-11T16:11:08.341Z,100827.02
2019-05-11T16:13:37.805Z,100822.53
2019-05-11T16:16:05.537Z,100828.35
2019-05-11T16:18:32.810Z,100833.31
2019-05-11T16:21:03.242Z,100834.34
2019-05-11T16:23:30.893Z,100830.42
2019-05-11T16:25:58.466Z,100835.12
2019-05-11T16:28:30.184Z,100834.13
2019-05-11T16:30:55.211Z,100832.61
2019-05-11T16:33:22.691Z,100818.38
2019-05-11T16:35:50.182Z,100819.62
2019-05-11T16:38:18.758Z,100821.76
2019-05-11T16:40:48.027Z,100821.92
2019-05-11T16:43:15.730Z,100832.86
2019-05-11T16:45:43.182Z,100839.88
2019-05-11T16:48:10.437Z,100831.38
2019-05-11T16:50:38.457Z,100830.02
2019-05-11T16:53:05.677Z,100841.07
2019-05-11T16:55:32.803Z,100848.99
2019-05-11T16:57:59.896Z,100868.96
2019-05-11T17:00:27.382Z,100878.50
2019-05-11T17:02:54.471Z,100879.28
2019-05-11T17:05:26.963Z,100886.47
2019-05-11T17:07:50.543Z,100883.56
2019-05-11T17:10:18.237Z,100876.71
2019-05-11T17:12:48.327Z,100869.24
2019-05-11T17:15:18.411Z,100861.41
2019-05-11T17:17:45.495Z,100858.33
2019-05-11T17:20:13.107Z,100859.20
2019-05-11T17:22:40.374Z,100871.57
2019-05-11T17:25:08.659Z,100882.44
2019-05-11T17:27:37.702Z,100885.22
2019-05-11T17:30:08.616Z,100897.44
2019-05-11T17:32:38.209Z,100903.21
2019-05-11T17:35:05.414Z,100922.27
2019-05-11T17:37:32.530Z,100930.62
2019-05-11T17:39:59.772Z,100946.36
2019-05-11T17:42:26.988Z,100956.50
2019-05-11T17:44:54.436Z,100955.34
2019-05-11T17:47:23.715Z,100962.66
2019-05-11T17:49:59.557Z,100953.60
2019-05-11T17:52:19.704Z,100950.16
2019-05-11T17:54:47.809Z,100951.77
2019-05-11T17:57:15.043Z,100961.38
2019-05-11T17:59:42.106Z,100959.74
2019-05-11T18:02:09.620Z,100955.37
2019-05-11T18:04:36.841Z,100960.26
2019-05-11T18:07:03.954Z,100965.47
2019-05-11T18:09:31.053Z,100967.62
2019-05-11T18:11:58.651Z,100963.21
2019-05-11T18:14:27.984Z,100972.31
2019-05-11T18:16:54.974Z,100983.47
2019-05-11T18:19:22.416Z,100995.17
2019-05-11T18:21:49.883Z,100990.96
2019-05-11T18:24:17.891Z,100991.44
2019-05-11T18:26:45.188Z,100994.50
2019-05-11T18:29:12.705Z,100997.13
2019-05-11T18:31:39.911Z,100997.16
2019-05-11T18:34:09.016Z,101000.73
2019-05-11T18:36:38.225Z,101004.80
2019-05-11T18:39:06.713Z,101007.11
2019-05-11T18:41:34.414Z,101013.31
2019-05-11T18:44:01.903Z,101019.06
2019-05-11T18:46:30.431Z,101033.16
2019-05-11T18:48:57.656Z,101036.09
2019-05-11T18:51:25.670Z,101037.47
2019-05-11T18:53:53.208Z,101038.79
2019-05-11T18:56:20.332Z,101044.42
2019-05-11T18:58:47.842Z,101044.91
2019-05-11T19:01:15.190Z,101041.25
2019-05-11T19:03:42.266Z,101048.44
2019-05-11T19:06:09.392Z,101060.59
2019-05-11T19:08:38.492Z,101066.04
2019-05-11T19:11:06.020Z,101069.57
2019-05-11T19:13:33.412Z,101075.80
2019-05-11T19:16:01.577Z,101068.79
2019-05-11T19:18:29.709Z,101081.20
2019-05-11T19:20:58.601Z,101091.32
2019-05-11T19:23:28.591Z,101104.55
2019-05-11T19:25:57.826Z,101105.88
2019-05-11T19:28:28.801Z,101112.77
2019-05-11T19:30:55.920Z,101114.70
2019-05-11T19:33:23.285Z,101120.91
2019-05-11T19:35:50.804Z,101124.08
2019-05-11T19:38:18.968Z,101129.27
2019-05-11T19:40:48.429Z,101139.46
2019-05-11T19:43:15.570Z,101126.88
2019-05-11T19:45:42.722Z,101137.85
2019-05-11T19:48:10.651Z,101137.45
2019-05-11T19:50:40.969Z,101131.98
2019-05-11T19:53:09.400Z,101140.04
2019-05-11T19:55:36.594Z,101138.40
2019-05-11T19:58:07.011Z,101145.83
2019-05-11T20:00:34.797Z,101150.37
2019-05-11T20:03:02.097Z,101145.27
2019-05-11T20:05:32.391Z,101153.47
2019-05-11T20:07:59.426Z,101155.37
2019-05-11T20:10:27.758Z,101156.42
2019-05-11T20:12:58.531Z,101154.39
2019-05-11T20:15:28.256Z,101159.22
2019-05-11T20:17:55.441Z,101156.59
2019-05-11T20:20:23.037Z,101163.63
2019-05-11T20:22:53.640Z,101158.95
2019-05-11T20:25:20.896Z,101164.23
2019-05-11T20:27:48.842Z,101170.80
2019-05-11T20:30:18.272Z,101167.39
2019-05-11T20:32:48.542Z,101182.30
2019-05-11T20:35:15.703Z,101185.09
2019-05-11T20:37:43.661Z,101192.48
2019-05-11T20:40:10.811Z,101194.12
2019-05-11T20:42:38.225Z,101182.34
2019-05-11T20:45:07.599Z,101192.91
2019-05-11T20:47:34.338Z,101196.45
2019-05-11T20:50:01.516Z,101202.47
2019-05-11T20:52:28.620Z,101213.02
2019-05-11T20:54:58.212Z,101210.37
2019-05-11T20:57:28.341Z,101211.34
2019-05-11T20:59:57.565Z,101217.16
2019-05-11T21:02:24.909Z,101222.37
2019-05-11T21:04:52.029Z,101233.73
2019-05-11T21:07:19.964Z,101238.58
2019-05-11T21:09:48.376Z,101245.29
2019-05-11T21:12:15.611Z,101251.86
2019-05-11T21:14:42.752Z,101251.86
2019-05-11T21:17:19.573Z,101258.08
2019-05-11T21:19:47.874Z,101258.57
2019-05-11T21:22:15.091Z,101258.59
2019-05-11T21:24:42.187Z,101264.86
2019-05-11T21:27:09.504Z,101278.16
2019-05-11T21:29:38.740Z,101281.70
2019-05-11T21:32:07.976Z,101288.72
2019-05-11T21:34:35.314Z,101289.67
2019-05-11T21:37:02.667Z,101285.33
2019-05-11T21:39:29.728Z,101291.98
2019-05-11T21:41:58.297Z,101295.98
2019-05-11T21:44:27.715Z,101307.91
2019-05-11T21:46:55.064Z,101308.86
2019-05-11T21:49:22.161Z,101319.47
2019-05-11T21:52:03.348Z,101317.72
2019-05-11T21:54:18.573Z,101328.73
2019-05-11T21:56:45.750Z,101341.95
2019-05-11T21:59:12.845Z,101341.97
2019-05-11T22:01:39.982Z,101340.28
2019-05-11T22:04:08.452Z,101332.40
2019-05-11T22:06:38.478Z,101337.23
2019-05-11T22:09:08.051Z,101332.47
2019-05-11T22:11:37.906Z,101337.71
2019-05-11T22:14:04.382Z,101338.59
2019-05-11T22:16:31.855Z,101334.66
2019-05-11T22:18:58.918Z,101336.36
2019-05-11T22:21:27.990Z,101335.48
2019-05-11T22:23:55.063Z,101342.91
2019-05-11T22:26:22.195Z,101346.84
2019-05-11T22:28:49.362Z,101349.91
2019-05-11T22:31:18.301Z,101353.41
2019-05-11T22:33:47.914Z,101361.22
2019-05-11T22:36:14.865Z,101368.22
2019-05-11T22:38:41.950Z,101373.08
2019-05-11T22:41:09.216Z,101381.72
2019-05-11T22:43:37.875Z,101380.41
2019-05-11T22:46:05.146Z,101383.47
2019-05-11T22:48:32.234Z,101389.15
2019-05-11T22:50:59.392Z,101391.20
2019-05-11T22:53:43.236Z,101395.53
2019-05-11T22:55:56.158Z,101396.45
2019-05-11T22:58:23.286Z,101402.09
2019-05-11T23:00:50.393Z,101402.47
2019-05-11T23:03:18.867Z,101401.66
2019-05-11T23:05:47.735Z,101404.72
2019-05-11T23:08:14.999Z,101403.02
2019-05-11T23:10:42.067Z,101405.59
2019-05-11T23:13:11.241Z,101409.53
2019-05-11T23:15:40.469Z,101423.16
2019-05-11T23:18:08.559Z,101426.59
2019-05-11T23:20:38.088Z,101429.66
2019-05-11T23:23:08.455Z,101443.17
2019-05-11T23:25:35.048Z,101441.79
2019-05-11T23:28:02.142Z,101441.34
2019-05-11T23:30:29.691Z,101442.64
2019-05-11T23:32:58.696Z,101444.41
2019-05-11T23:35:25.858Z,101444.39
2019-05-11T23:37:53.296Z,101446.09
2019-05-11T23:40:20.921Z,101444.40
2019-05-11T23:42:49.053Z,101447.03
2019-05-11T23:45:18.830Z,101450.53
2019-05-11T23:47:47.788Z,101454.45
2019-05-11T23:50:14.752Z,101457.53
2019-05-11T23:52:41.919Z,101456.16
2019-05-11T23:55:09.245Z,101463.52
2019-05-11T23:57:37.946Z,101459.20
